Aérodrome :
LOGIN :

S'inscrire | Disclaimer

   EN    FR    IT 

 










Légende :    VFR   VFR Marginal   IFR   IFR Intensif   IFR Très Intensif
Visi : 
Plafond : 
>= 8 km
>= 3000ft
5 à 8 km
1000 à 3000 ft
1500m à 5 km
500 à 1000 ft
800 à 1500m
200 à 500 ft
< 800m
< 200 ft
Symboles :   Orages  Brouillard  Fortes neiges  Fortes précipitations  Vent > 20 kt
SIGMETs :   Divers  Orages  Givrage  Turbulence  Onde Orograph.  Cendres Volcan.






- Altitude de l'aérodrome : 72 ft
- Code IATA : UDE


EHVK - Volkel Airbase

DERNIER METAR :
  • 042355Z AUTO VRB02KT 9999 OVC072 16/14 Q1011 BLU

METARs EXPIRÉS :
  • 042325Z AUTO 01001KT 9999 OVC068 16/14 Q1012 BLU
  • 042255Z AUTO VRB02KT 9999 FEW060 OVC074 16/14 Q1012 BLU
  • 042225Z AUTO VRB01KT 9999 FEW058 OVC074 16/14 Q1012 BLU
  • 042209Z AUTO VRB02KT 9999 FEW047 BKN063 BKN070 16/14 Q1012 BLU
  • 042155Z AUTO 03002KT 9999 FEW015CB BKN075 BKN080 16/14 Q1012 BLU
  • 042125Z AUTO VRB02KT 9999 DZ FEW015CB SCT079 OVC087 16/14 Q1012 BLU

TAF TAF EHVK
Valide du 04 à 21h jusqu'au 05 à 09h UTC


042047Z 0421/0509 VRB03KT 9999 FEW035 SCT045
PROB30
TEMPO 0421/0501 4000 SHRA SCT025CB
BECMG 0422/0501 3500 BR
TEMPO 0500/0505 2000 BR MIFG
PROB30 0502/0505 0800 FG
BECMG 0506/0509 9999 NSW



MET'MAP, la Météo Aéronautique d'un coup d'oeil ! - Copyright ORBIFLY Décembre 2007 - Disclaimer

ORBIFLY MET'MAP TEAM :

Programmation & Développement : Alexandra Zaïnal
Sur une idée originale de : Baudouin d'Aumeries
Assistance à la programmation : Marc-Olivier Méhu
Soutien technique & logistique : Manuel Goepfert

Contact : metmap@orbifly.com




SOURCES & CREDITS :

   NOAA